Airport ICAO


18:22 UTC

16°C

Clear skies


An affordable passengers' Moving Map for your aircraft. Made for the iPad and the iPhone
More information here

LFLL Saint Exupery


Lyon FRANCE   VFR CAVOK


METAR LFLL 231800Z 35010KT CAVOK 16/03 Q1024 NOSIG 0h22min

TAF LFLL 231700Z 2318/2424 35012KT CAVOK BECMG 2400/2402 VRB02KT PROB40 TEMPO 2403/2409 3000 BR PROB30 TEMPO 2405/2409 0800 FG OVC002 BECMG 2410/2412 33014KT 1h22min





NOTAMS

OPEN